createdAt,value
2022-11-09T00:01:18.214Z,326.37
2022-11-09T00:03:26.103Z,324.71
2022-11-09T00:05:31.904Z,323.42
2022-11-09T00:07:38.618Z,323.51
2022-11-09T00:09:45.081Z,308.03
2022-11-09T00:11:51.076Z,309.97
2022-11-09T00:13:57.721Z,308.03
2022-11-09T00:16:06.684Z,304.09
2022-11-09T00:18:12.726Z,298.95
2022-11-09T00:20:19.817Z,299.11
2022-11-09T00:22:25.562Z,291.81
2022-11-09T00:24:31.459Z,292.53
2022-11-09T00:26:38.026Z,294.17
2022-11-09T00:28:47.085Z,292.49
2022-11-09T00:30:52.856Z,300.27
2022-11-09T00:33:02.044Z,300.32
2022-11-09T00:35:10.034Z,313.91
2022-11-09T00:37:19.101Z,311.85
2022-11-09T00:39:25.729Z,311.38
2022-11-09T00:41:32.354Z,309.40
2022-11-09T00:43:38.658Z,307.44
2022-11-09T00:45:49.004Z,306.28
2022-11-09T00:47:54.776Z,300.64
2022-11-09T00:50:03.216Z,287.18
2022-11-09T00:52:09.855Z,273.10
2022-11-09T00:54:15.993Z,265.16
2022-11-09T00:56:21.812Z,262.54
2022-11-09T01:01:13.949Z,243.53
2022-11-09T01:03:21.919Z,243.05
2022-11-09T01:05:31.252Z,240.96
2022-11-09T01:07:37.016Z,243.17
2022-11-09T01:09:43.024Z,242.24
2022-11-09T01:12:20.645Z,247.68
2022-11-09T01:14:31.652Z,253.56
2022-11-09T01:16:38.503Z,244.59
2022-11-09T01:18:46.202Z,245.03
2022-11-09T01:20:54.891Z,245.30
2022-11-09T01:23:00.579Z,248.87
2022-11-09T01:25:12.099Z,252.92
2022-11-09T01:27:20.627Z,255.87
2022-11-09T01:29:26.434Z,265.60
2022-11-09T01:31:35.838Z,256.90
2022-11-09T01:33:42.660Z,259.59
2022-11-09T01:35:53.273Z,257.99
2022-11-09T01:37:59.783Z,256.10
2022-11-09T01:40:05.868Z,258.61
2022-11-09T01:42:12.257Z,266.96
2022-11-09T01:47:01.339Z,268.61
2022-11-09T01:49:16.599Z,275.82
2022-11-09T01:51:34.687Z,258.13
2022-11-09T01:53:49.063Z,261.93
2022-11-09T01:56:01.881Z,256.65
2022-11-09T01:58:16.145Z,255.25
2022-11-09T02:00:22.231Z,251.86
2022-11-09T02:03:28.719Z,243.54
2022-11-09T02:09:30.482Z,268.73
2022-11-09T02:11:41.635Z,238.86
2022-11-09T02:17:26.315Z,218.81
2022-11-09T02:19:36.165Z,212.65
2022-11-09T02:21:45.836Z,216.92
2022-11-09T02:23:56.694Z,222.22
2022-11-09T02:26:15.409Z,214.25
2022-11-09T02:28:21.546Z,207.44
2022-11-09T02:30:27.443Z,205.59
2022-11-09T02:32:35.366Z,198.25
2022-11-09T02:34:41.671Z,203.00
2022-11-09T02:36:50.717Z,204.61
2022-11-09T02:39:01.819Z,204.58
2022-11-09T02:41:08.346Z,201.70
2022-11-09T02:43:19.365Z,197.11
2022-11-09T02:45:29.307Z,204.44
2022-11-09T02:47:35.782Z,213.36
2022-11-09T02:49:49.511Z,195.26
2022-11-09T02:52:00.006Z,195.36
2022-11-09T02:54:07.930Z,191.04
2022-11-09T02:56:16.509Z,192.55
2022-11-09T02:58:24.055Z,195.53
2022-11-09T03:00:30.486Z,191.47
2022-11-09T03:02:38.203Z,189.39
2022-11-09T03:04:45.439Z,185.16
2022-11-09T03:06:51.522Z,193.17
2022-11-09T03:09:01.259Z,191.31
2022-11-09T03:11:09.108Z,189.10
2022-11-09T03:13:15.169Z,188.02
2022-11-09T03:15:21.119Z,186.69
2022-11-09T03:17:28.527Z,182.88
2022-11-09T03:19:34.309Z,182.30
2022-11-09T03:21:40.152Z,181.30
2022-11-09T03:23:46.691Z,179.15
2022-11-09T03:25:58.345Z,174.76
2022-11-09T03:28:07.259Z,183.74
2022-11-09T03:30:15.325Z,191.89
2022-11-09T03:32:21.685Z,189.67
2022-11-09T03:34:27.516Z,192.29
2022-11-09T03:36:34.059Z,195.53
2022-11-09T03:38:40.010Z,194.69
2022-11-09T03:40:45.861Z,198.04
2022-11-09T03:42:55.343Z,194.23
2022-11-09T03:45:02.824Z,186.16
2022-11-09T03:47:10.813Z,188.98
2022-11-09T03:49:33.938Z,189.46
2022-11-09T03:51:49.735Z,194.63
2022-11-09T03:53:57.008Z,200.78
2022-11-09T03:56:03.582Z,219.06
2022-11-09T03:58:16.092Z,204.96
2022-11-09T04:00:25.412Z,199.93
2022-11-09T04:02:32.034Z,192.99
2022-11-09T04:04:37.951Z,192.29
2022-11-09T04:06:43.766Z,201.17
2022-11-09T04:08:51.653Z,210.97
2022-11-09T04:10:58.354Z,201.73
2022-11-09T04:13:04.132Z,203.65
2022-11-09T04:15:16.156Z,204.40
2022-11-09T04:17:22.209Z,202.72
2022-11-09T04:19:29.329Z,205.87
2022-11-09T04:21:38.539Z,208.98
2022-11-09T04:23:44.256Z,209.87
2022-11-09T04:26:10.389Z,204.45
2022-11-09T04:28:19.701Z,217.20
2022-11-09T04:30:30.798Z,222.30
2022-11-09T04:32:36.577Z,224.10
2022-11-09T04:34:44.090Z,227.16
2022-11-09T04:36:49.846Z,234.03
2022-11-09T04:38:55.617Z,245.87
2022-11-09T04:41:08.555Z,247.59
2022-11-09T04:43:19.102Z,248.79
2022-11-09T04:45:31.189Z,254.35
2022-11-09T04:47:37.802Z,271.10
2022-11-09T04:49:43.490Z,285.95
2022-11-09T04:51:49.323Z,279.69
2022-11-09T04:53:56.484Z,292.16
2022-11-09T04:56:02.833Z,291.73
2022-11-09T05:01:17.225Z,262.78
2022-11-09T05:03:24.242Z,248.89
2022-11-09T05:05:30.245Z,249.89
2022-11-09T05:07:37.318Z,252.55
2022-11-09T05:09:50.344Z,236.11
2022-11-09T05:11:59.637Z,258.81
2022-11-09T05:14:08.255Z,245.45
2022-11-09T05:16:18.143Z,246.01
2022-11-09T05:18:23.845Z,240.89
2022-11-09T05:27:20.429Z,245.43
2022-11-09T05:29:38.858Z,246.08
2022-11-09T05:32:09.429Z,256.29
2022-11-09T05:34:43.825Z,270.97
2022-11-09T05:37:03.492Z,249.32
2022-11-09T05:39:13.633Z,250.32
2022-11-09T05:41:20.217Z,251.81
2022-11-09T05:43:33.164Z,245.97
2022-11-09T05:45:43.660Z,242.65
2022-11-09T05:47:52.380Z,242.93
2022-11-09T05:49:58.984Z,240.80
2022-11-09T05:52:12.003Z,237.86
2022-11-09T05:54:17.810Z,239.80
2022-11-09T05:56:24.548Z,236.91
2022-11-09T05:58:30.268Z,232.00
2022-11-09T06:00:36.796Z,236.25
2022-11-09T06:02:43.464Z,244.34
2022-11-09T06:04:51.774Z,239.63
2022-11-09T06:06:57.630Z,241.65
2022-11-09T06:09:07.414Z,248.47
2022-11-09T06:11:23.174Z,238.77
2022-11-09T06:13:30.539Z,239.86
2022-11-09T06:15:37.731Z,242.18
2022-11-09T06:17:43.458Z,232.92
2022-11-09T06:19:51.945Z,236.49
2022-11-09T06:21:58.496Z,230.38
2022-11-09T06:24:04.245Z,240.65
2022-11-09T06:26:13.536Z,243.38
2022-11-09T06:28:20.052Z,241.64
2022-11-09T06:30:26.264Z,247.54
2022-11-09T06:32:32.074Z,240.49
2022-11-09T06:34:38.623Z,240.07
2022-11-09T06:36:47.141Z,233.87
2022-11-09T06:38:53.686Z,235.13
2022-11-09T06:41:04.976Z,240.04
2022-11-09T06:43:19.209Z,243.93
2022-11-09T06:45:25.254Z,249.24
2022-11-09T06:47:31.915Z,247.07
2022-11-09T06:49:39.935Z,251.26
2022-11-09T06:51:53.048Z,258.24
2022-11-09T06:53:59.685Z,246.30
2022-11-09T06:56:08.330Z,261.57
2022-11-09T06:58:19.819Z,262.37
2022-11-09T07:00:32.928Z,266.28
2022-11-09T07:02:38.608Z,269.82
2022-11-09T07:04:44.281Z,264.32
2022-11-09T07:06:56.674Z,263.03
2022-11-09T07:09:03.673Z,266.74
2022-11-09T07:11:12.160Z,261.91
2022-11-09T07:13:18.981Z,259.43
2022-11-09T07:15:24.892Z,258.55
2022-11-09T07:17:33.794Z,256.01
2022-11-09T07:19:40.384Z,254.27
2022-11-09T07:21:46.050Z,252.46
2022-11-09T07:23:55.029Z,246.58
2022-11-09T07:26:02.199Z,248.33
2022-11-09T07:28:09.499Z,246.61
2022-11-09T07:30:16.650Z,254.92
2022-11-09T07:32:54.209Z,251.35
2022-11-09T07:34:55.704Z,246.93
2022-11-09T07:37:08.208Z,245.04
2022-11-09T07:39:18.120Z,243.69
2022-11-09T07:41:23.743Z,246.68
2022-11-09T07:43:33.711Z,251.84
2022-11-09T07:45:44.281Z,242.97
2022-11-09T07:47:50.044Z,233.75
2022-11-09T07:49:55.750Z,237.26
2022-11-09T07:52:02.259Z,250.15
2022-11-09T07:54:08.138Z,241.53
2022-11-09T07:56:16.607Z,236.26
2022-11-09T07:58:23.187Z,237.74
2022-11-09T08:00:31.876Z,223.09
2022-11-09T08:02:37.596Z,218.35
2022-11-09T08:04:45.284Z,214.46
2022-11-09T08:06:51.158Z,205.28
2022-11-09T08:08:58.026Z,217.37
2022-11-09T08:11:11.071Z,209.74
2022-11-09T08:13:19.743Z,203.58
2022-11-09T08:15:29.400Z,214.14
2022-11-09T08:17:36.246Z,205.79
2022-11-09T08:19:42.102Z,214.83
2022-11-09T08:21:47.905Z,209.29
2022-11-09T08:24:16.341Z,209.74
2022-11-09T08:26:22.144Z,224.14
2022-11-09T08:28:30.577Z,235.01
2022-11-09T08:30:37.309Z,240.06
2022-11-09T08:32:44.077Z,236.62
2022-11-09T08:34:54.252Z,229.13
2022-11-09T08:37:05.622Z,234.75
2022-11-09T08:39:12.439Z,227.20
2022-11-09T08:41:20.752Z,233.60
2022-11-09T08:43:27.647Z,254.81
2022-11-09T08:45:38.793Z,247.94
2022-11-09T08:47:46.334Z,242.02
2022-11-09T08:49:52.993Z,240.17
2022-11-09T08:51:58.742Z,247.14
2022-11-09T08:54:04.600Z,266.94
2022-11-09T08:56:13.151Z,282.84
2022-11-09T08:58:19.292Z,284.74
2022-11-09T09:00:35.506Z,251.04
2022-11-09T09:02:42.411Z,239.56
2022-11-09T09:04:48.271Z,221.25
2022-11-09T09:06:54.319Z,217.84
2022-11-09T09:09:01.075Z,211.12
2022-11-09T09:11:08.197Z,191.03
2022-11-09T09:13:13.948Z,191.23
2022-11-09T09:15:20.825Z,185.74
2022-11-09T09:17:29.771Z,182.67
2022-11-09T09:19:35.673Z,181.51
2022-11-09T09:21:46.900Z,184.02
2022-11-09T09:23:54.109Z,178.06
2022-11-09T09:26:01.185Z,171.52
2022-11-09T09:28:13.941Z,181.78
2022-11-09T09:30:20.897Z,182.61
2022-11-09T09:32:34.972Z,177.68
2022-11-09T09:34:41.678Z,179.09
2022-11-09T09:36:48.416Z,179.68
2022-11-09T09:38:56.379Z,175.31
2022-11-09T09:41:09.247Z,177.86
2022-11-09T09:43:41.552Z,182.24
2022-11-09T09:45:56.771Z,177.77
2022-11-09T09:48:24.143Z,177.58
2022-11-09T09:50:40.018Z,186.53
2022-11-09T09:53:22.274Z,197.93
2022-11-09T09:55:37.261Z,206.08
2022-11-09T09:57:50.958Z,208.44
2022-11-09T10:00:06.563Z,206.35
2022-11-09T10:02:34.583Z,192.06
2022-11-09T10:05:09.482Z,185.79
2022-11-09T10:07:33.868Z,180.79
2022-11-09T10:10:27.611Z,185.13
2022-11-09T10:13:31.107Z,174.26
2022-11-09T10:19:14.030Z,152.31
2022-11-09T10:21:49.665Z,156.24
2022-11-09T10:24:18.369Z,162.92
2022-11-09T10:26:55.255Z,156.88
2022-11-09T10:29:34.514Z,153.07
2022-11-09T10:32:34.425Z,153.99
2022-11-09T10:35:26.074Z,135.01
2022-11-09T10:40:58.270Z,129.36
2022-11-09T10:46:30.190Z,131.44
2022-11-09T10:49:34.849Z,128.17
2022-11-09T10:55:32.296Z,138.72
2022-11-09T10:58:32.041Z,138.23
2022-11-09T11:01:09.251Z,139.04
2022-11-09T11:03:45.751Z,141.22
2022-11-09T11:06:34.529Z,142.34
2022-11-09T11:09:31.992Z,144.55
2022-11-09T11:12:30.327Z,140.36
2022-11-09T11:15:24.042Z,144.00
2022-11-09T11:17:53.088Z,154.32
2022-11-09T11:27:04.314Z,153.84
2022-11-09T11:30:01.070Z,158.45
2022-11-09T11:32:44.231Z,153.84
2022-11-09T11:35:53.103Z,149.91
2022-11-09T11:38:36.566Z,148.98
2022-11-09T11:41:44.933Z,149.14
2022-11-09T11:44:32.574Z,144.00
2022-11-09T11:47:25.224Z,138.00
2022-11-09T11:50:46.434Z,139.14
2022-11-09T11:57:08.433Z,148.74
2022-11-09T12:00:34.715Z,149.42
2022-11-09T12:04:17.625Z,136.17
2022-11-09T12:07:27.096Z,132.57
2022-11-09T12:10:26.126Z,137.81
2022-11-09T12:13:25.208Z,134.41
2022-11-09T12:16:16.727Z,136.78
2022-11-09T12:22:48.728Z,139.91
2022-11-09T12:25:27.671Z,138.04
2022-11-09T12:28:31.863Z,137.83
2022-11-09T12:31:25.150Z,138.40
2022-11-09T12:34:08.273Z,138.40
2022-11-09T12:37:02.553Z,138.73
2022-11-09T12:39:51.261Z,134.52
2022-11-09T12:42:30.083Z,137.61
2022-11-09T12:45:08.134Z,135.17
2022-11-09T12:47:42.667Z,138.87
2022-11-09T12:50:14.965Z,145.37
2022-11-09T12:52:42.007Z,141.68
2022-11-09T12:55:10.240Z,134.69
2022-11-09T12:57:36.087Z,132.23
2022-11-09T13:00:04.603Z,131.10
2022-11-09T13:02:36.037Z,129.92
2022-11-09T13:05:04.348Z,128.68
2022-11-09T13:07:52.418Z,135.50
2022-11-09T13:10:34.634Z,128.74
2022-11-09T13:13:22.946Z,131.37
2022-11-09T13:16:09.138Z,129.98
2022-11-09T13:18:54.792Z,130.57
2022-11-09T13:21:39.598Z,136.82
2022-11-09T13:24:59.992Z,138.59
2022-11-09T13:27:47.743Z,141.55
2022-11-09T13:30:54.292Z,151.26
2022-11-09T13:33:29.251Z,151.42
2022-11-09T13:36:21.657Z,145.90
2022-11-09T13:38:48.178Z,161.36
2022-11-09T13:41:51.241Z,150.81
2022-11-09T13:44:32.874Z,156.18
2022-11-09T13:47:02.361Z,159.76
2022-11-09T13:49:49.841Z,162.59
2022-11-09T13:52:51.880Z,162.24
2022-11-09T13:55:39.620Z,159.35
2022-11-09T13:58:18.214Z,167.70
2022-11-09T14:00:49.781Z,168.34
2022-11-09T14:03:28.144Z,157.94
2022-11-09T14:06:00.393Z,201.68
2022-11-09T14:08:28.868Z,191.32
2022-11-09T14:12:03.078Z,191.63
2022-11-09T14:15:12.818Z,204.51
2022-11-09T14:17:56.122Z,193.71
2022-11-09T14:20:36.385Z,203.28
2022-11-09T14:23:01.600Z,199.46
2022-11-09T14:25:29.152Z,213.99
2022-11-09T14:28:00.565Z,192.35
2022-11-09T14:30:33.186Z,218.07
2022-11-09T14:33:00.051Z,237.77
2022-11-09T14:35:30.242Z,217.30
2022-11-09T14:37:58.486Z,221.69
2022-11-09T14:40:29.010Z,213.00
2022-11-09T14:43:00.162Z,205.97
2022-11-09T14:45:29.627Z,216.52
2022-11-09T14:48:00.734Z,273.05
2022-11-09T14:50:30.745Z,274.07
2022-11-09T14:52:58.448Z,274.27
2022-11-09T14:55:27.142Z,263.43
2022-11-09T14:57:57.996Z,265.35
2022-11-09T15:00:34.357Z,267.17
2022-11-09T15:03:00.936Z,287.58
2022-11-09T15:05:43.169Z,264.98
2022-11-09T15:08:18.528Z,273.29
2022-11-09T15:10:43.759Z,355.21
2022-11-09T15:13:09.258Z,329.97
2022-11-09T15:15:38.998Z,384.36
2022-11-09T15:18:05.302Z,283.72
2022-11-09T15:20:36.645Z,264.40
2022-11-09T15:23:04.256Z,253.97
2022-11-09T15:25:34.674Z,261.11
2022-11-09T15:28:18.417Z,277.24
2022-11-09T15:30:50.477Z,259.72
2022-11-09T15:33:30.799Z,254.03
2022-11-09T15:35:58.877Z,251.58
2022-11-09T15:38:34.938Z,249.66
2022-11-09T15:40:59.968Z,291.83
2022-11-09T15:43:25.281Z,291.44
2022-11-09T15:45:56.150Z,290.93
2022-11-09T15:48:20.833Z,292.52
2022-11-09T15:50:46.105Z,291.00
2022-11-09T15:53:12.547Z,327.62
2022-11-09T15:55:37.006Z,327.92
2022-11-09T15:58:02.153Z,362.24
2022-11-09T16:00:26.755Z,335.50
2022-11-09T16:02:54.054Z,372.98
2022-11-09T16:05:19.997Z,403.57
2022-11-09T16:07:51.594Z,389.36
2022-11-09T16:10:20.526Z,301.76
2022-11-09T16:12:46.618Z,316.84
2022-11-09T16:15:12.466Z,317.01
2022-11-09T16:17:36.668Z,336.97
2022-11-09T16:20:04.643Z,363.84
2022-11-09T16:22:33.780Z,347.50
2022-11-09T16:24:58.457Z,360.95
2022-11-09T16:30:12.619Z,373.20
2022-11-09T16:32:38.474Z,376.02
2022-11-09T16:35:26.000Z,376.83
2022-11-09T16:37:55.334Z,426.88
2022-11-09T16:40:20.735Z,459.63
2022-11-09T16:42:45.207Z,512.77
2022-11-09T16:45:15.992Z,501.29
2022-11-09T16:47:47.282Z,536.97
2022-11-09T16:50:15.076Z,463.66
2022-11-09T16:52:39.356Z,460.09
2022-11-09T16:55:03.911Z,493.44
2022-11-09T16:57:29.046Z,570.81
2022-11-09T16:59:53.432Z,711.41
2022-11-09T17:02:17.862Z,690.70
2022-11-09T17:04:42.737Z,589.41
2022-11-09T17:07:12.260Z,553.58
2022-11-09T17:09:38.051Z,570.13
2022-11-09T17:12:03.496Z,511.65
2022-11-09T17:14:31.225Z,439.60
2022-11-09T17:16:57.301Z,423.30
2022-11-09T17:19:22.689Z,433.94
2022-11-09T17:21:47.317Z,454.40
2022-11-09T17:24:14.665Z,468.07
2022-11-09T17:26:40.419Z,457.63
2022-11-09T17:29:04.983Z,488.66
2022-11-09T17:31:29.512Z,489.82
2022-11-09T17:33:59.873Z,503.15
2022-11-09T17:36:56.977Z,524.93
2022-11-09T17:39:16.285Z,530.82
2022-11-09T17:41:42.857Z,447.09
2022-11-09T17:44:07.593Z,491.76
2022-11-09T17:46:36.426Z,477.72
2022-11-09T17:49:02.666Z,479.94
2022-11-09T17:51:30.283Z,458.09
2022-11-09T17:53:55.620Z,452.73
2022-11-09T17:56:22.616Z,475.24
2022-11-09T17:58:48.601Z,462.21
2022-11-09T18:01:18.919Z,462.40
2022-11-09T18:03:44.002Z,454.33
2022-11-09T18:06:14.697Z,438.42
2022-11-09T18:08:43.538Z,465.05
2022-11-09T18:11:08.240Z,454.51
2022-11-09T18:13:35.862Z,410.97
2022-11-09T18:16:01.045Z,408.42
2022-11-09T18:18:25.585Z,395.21
2022-11-09T18:20:52.455Z,397.98
2022-11-09T18:23:17.552Z,388.78
2022-11-09T18:25:42.101Z,398.13
2022-11-09T18:28:07.163Z,386.21
2022-11-09T18:30:35.110Z,380.18
2022-11-09T18:32:59.385Z,381.58
2022-11-09T18:35:23.983Z,389.35
2022-11-09T18:37:49.828Z,375.17
2022-11-09T18:40:15.212Z,372.20
2022-11-09T18:42:39.802Z,375.88
2022-11-09T18:45:04.832Z,389.45
2022-11-09T18:47:31.559Z,363.86
2022-11-09T18:49:55.903Z,374.09
2022-11-09T18:52:21.714Z,373.79
2022-11-09T18:54:46.030Z,358.38
2022-11-09T18:57:14.809Z,351.86
2022-11-09T18:59:44.014Z,355.75
2022-11-09T19:02:09.139Z,359.90
2022-11-09T19:04:35.987Z,379.28
2022-11-09T19:07:01.330Z,374.01
2022-11-09T19:09:42.063Z,365.39
2022-11-09T19:12:11.636Z,350.59
2022-11-09T19:14:46.374Z,345.02
2022-11-09T19:17:16.457Z,362.68
2022-11-09T19:19:46.706Z,354.19
2022-11-09T19:22:19.820Z,367.88
2022-11-09T19:24:45.022Z,362.09
2022-11-09T19:27:09.263Z,413.82
2022-11-09T19:29:36.335Z,416.00
2022-11-09T19:32:00.640Z,447.85
2022-11-09T19:34:25.253Z,428.44
2022-11-09T19:36:53.230Z,434.98
2022-11-09T19:39:19.405Z,411.47
2022-11-09T19:41:45.022Z,385.93
2022-11-09T19:44:17.668Z,383.16
2022-11-09T19:46:43.067Z,408.25
2022-11-09T19:49:10.086Z,405.43
2022-11-09T19:51:35.949Z,419.91
2022-11-09T19:54:07.820Z,417.14
2022-11-09T19:56:37.139Z,413.48
2022-11-09T19:59:04.988Z,421.99
2022-11-09T20:01:31.307Z,415.08
2022-11-09T20:03:59.610Z,394.55
2022-11-09T20:06:27.225Z,405.58
2022-11-09T20:08:52.311Z,438.03
2022-11-09T20:11:43.850Z,448.79
2022-11-09T20:14:11.992Z,414.50
2022-11-09T20:16:42.396Z,423.88
2022-11-09T20:19:15.722Z,408.25
2022-11-09T20:21:41.424Z,381.39
2022-11-09T20:24:15.780Z,386.36
2022-11-09T20:26:44.589Z,366.37
2022-11-09T20:29:09.710Z,351.94
2022-11-09T20:31:34.188Z,363.33
2022-11-09T20:34:08.536Z,343.02
2022-11-09T20:36:46.060Z,336.78
2022-11-09T20:39:11.236Z,341.81
2022-11-09T20:41:36.651Z,332.77
2022-11-09T20:44:03.610Z,333.43
2022-11-09T20:46:34.346Z,328.55
2022-11-09T20:49:00.055Z,324.25
2022-11-09T20:51:28.952Z,324.88
2022-11-09T20:53:55.133Z,331.26
2022-11-09T20:56:25.401Z,331.50
2022-11-09T20:58:50.447Z,328.64
2022-11-09T21:01:22.719Z,329.94
2022-11-09T21:03:49.221Z,319.04
2022-11-09T21:06:16.361Z,329.90
2022-11-09T21:08:42.747Z,323.77
2022-11-09T21:11:14.249Z,308.22
2022-11-09T21:13:39.096Z,315.31
2022-11-09T21:16:20.182Z,315.49
2022-11-09T21:18:46.144Z,312.82
2022-11-09T21:21:20.006Z,312.88
2022-11-09T21:23:58.986Z,287.46
2022-11-09T21:26:36.220Z,286.72
2022-11-09T21:29:14.176Z,287.31
2022-11-09T21:31:43.986Z,272.96
2022-11-09T21:34:09.806Z,294.15
2022-11-09T21:36:36.400Z,281.17
2022-11-09T21:39:08.048Z,273.97
2022-11-09T21:41:43.144Z,277.67
2022-11-09T21:44:17.465Z,277.95
2022-11-09T21:46:47.502Z,280.31
2022-11-09T21:49:15.938Z,278.17
2022-11-09T21:51:43.636Z,269.39
2022-11-09T21:54:12.012Z,263.85
2022-11-09T21:56:50.628Z,277.23
2022-11-09T21:59:26.538Z,257.38
2022-11-09T22:01:55.250Z,253.56
2022-11-09T22:04:20.944Z,262.61
2022-11-09T22:06:51.197Z,254.73
2022-11-09T22:09:21.034Z,255.05
2022-11-09T22:11:59.804Z,256.85
2022-11-09T22:14:37.909Z,253.49
2022-11-09T22:17:18.599Z,250.50
2022-11-09T22:20:00.483Z,243.42
2022-11-09T22:22:30.698Z,241.56
2022-11-09T22:25:09.677Z,241.00
2022-11-09T22:27:41.543Z,235.02
2022-11-09T22:30:16.567Z,239.87
2022-11-09T22:32:44.138Z,233.17
2022-11-09T22:35:10.885Z,238.42
2022-11-09T22:37:36.346Z,233.13
2022-11-09T22:40:01.244Z,230.14
2022-11-09T22:42:26.812Z,224.54
2022-11-09T22:44:51.642Z,227.91
2022-11-09T22:47:17.009Z,229.44
2022-11-09T22:49:45.285Z,230.06
2022-11-09T22:52:10.591Z,236.62
2022-11-09T22:54:35.855Z,229.31
2022-11-09T22:57:02.281Z,228.06
2022-11-09T22:59:27.393Z,230.21
2022-11-09T23:01:54.860Z,231.23
2022-11-09T23:04:23.545Z,236.41
2022-11-09T23:06:51.788Z,229.46
2022-11-09T23:09:22.390Z,228.22
2022-11-09T23:11:47.800Z,221.21
2022-11-09T23:14:14.547Z,226.07
2022-11-09T23:16:40.755Z,225.00
2022-11-09T23:19:03.365Z,226.37
2022-11-09T23:21:31.653Z,229.27
2022-11-09T23:24:03.251Z,225.49
2022-11-09T23:26:29.988Z,224.75
2022-11-09T23:28:55.406Z,220.56
2022-11-09T23:31:25.214Z,224.87
2022-11-09T23:33:52.833Z,237.62
2022-11-09T23:36:17.994Z,255.27
2022-11-09T23:38:43.960Z,260.09
2022-11-09T23:41:14.859Z,252.73
2022-11-09T23:43:42.974Z,247.61
2022-11-09T23:46:16.517Z,248.49
2022-11-09T23:48:46.025Z,244.55
2022-11-09T23:51:12.865Z,231.73
2022-11-09T23:53:39.652Z,237.93
2022-11-09T23:56:05.877Z,238.85
2022-11-09T23:58:34.325Z,245.20
